sensor_id;sensor_type;location;lat;lon;timestamp;temperature;humidity
24618;DHT22;12762;51.730;5.356;2023-04-24T00:01:57;10.70;85.10
24618;DHT22;12762;51.730;5.356;2023-04-24T00:04:25;10.80;85.30
24618;DHT22;12762;51.730;5.356;2023-04-24T00:06:52;10.80;85.30
24618;DHT22;12762;51.730;5.356;2023-04-24T00:09:23;10.80;85.30
24618;DHT22;12762;51.730;5.356;2023-04-24T00:11:51;10.80;85.30
24618;DHT22;12762;51.730;5.356;2023-04-24T00:14:18;10.80;85.40
24618;DHT22;12762;51.730;5.356;2023-04-24T00:16:47;10.70;85.40
24618;DHT22;12762;51.730;5.356;2023-04-24T00:19:17;10.80;85.50
24618;DHT22;12762;51.730;5.356;2023-04-24T00:21:48;10.80;85.50
24618;DHT22;12762;51.730;5.356;2023-04-24T00:24:18;10.70;85.40
24618;DHT22;12762;51.730;5.356;2023-04-24T00:26:45;10.80;85.60
24618;DHT22;12762;51.730;5.356;2023-04-24T00:29:12;10.70;85.60
24618;DHT22;12762;51.730;5.356;2023-04-24T00:31:40;10.70;85.70
24618;DHT22;12762;51.730;5.356;2023-04-24T00:34:07;10.70;85.80
24618;DHT22;12762;51.730;5.356;2023-04-24T00:36:34;10.70;85.70
24618;DHT22;12762;51.730;5.356;2023-04-24T00:39:01;10.70;85.80
24618;DHT22;12762;51.730;5.356;2023-04-24T00:41:30;10.80;85.90
24618;DHT22;12762;51.730;5.356;2023-04-24T00:43:58;10.80;85.90
24618;DHT22;12762;51.730;5.356;2023-04-24T00:46:25;10.80;85.90
24618;DHT22;12762;51.730;5.356;2023-04-24T00:48:52;10.80;85.90
24618;DHT22;12762;51.730;5.356;2023-04-24T00:51:19;10.80;86.00
24618;DHT22;12762;51.730;5.356;2023-04-24T00:53:46;10.80;85.90
24618;DHT22;12762;51.730;5.356;2023-04-24T00:56:13;10.80;85.80
24618;DHT22;12762;51.730;5.356;2023-04-24T00:58:40;10.80;85.90
24618;DHT22;12762;51.730;5.356;2023-04-24T01:01:09;10.80;85.90
24618;DHT22;12762;51.730;5.356;2023-04-24T01:03:38;10.90;86.00
24618;DHT22;12762;51.730;5.356;2023-04-24T01:06:05;10.80;85.90
24618;DHT22;12762;51.730;5.356;2023-04-24T01:08:34;10.80;86.00
24618;DHT22;12762;51.730;5.356;2023-04-24T01:11:03;10.80;85.90
24618;DHT22;12762;51.730;5.356;2023-04-24T01:13:32;10.80;85.90
24618;DHT22;12762;51.730;5.356;2023-04-24T01:15:59;10.80;86.00
24618;DHT22;12762;51.730;5.356;2023-04-24T01:18:27;10.90;86.00
24618;DHT22;12762;51.730;5.356;2023-04-24T01:20:58;10.90;86.10
24618;DHT22;12762;51.730;5.356;2023-04-24T01:23:26;10.90;86.20
24618;DHT22;12762;51.730;5.356;2023-04-24T01:25:53;10.90;86.10
24618;DHT22;12762;51.730;5.356;2023-04-24T01:28:21;10.80;86.00
24618;DHT22;12762;51.730;5.356;2023-04-24T01:30:48;10.80;86.10
24618;DHT22;12762;51.730;5.356;2023-04-24T01:33:15;10.90;86.20
24618;DHT22;12762;51.730;5.356;2023-04-24T01:35:42;10.90;86.20
24618;DHT22;12762;51.730;5.356;2023-04-24T01:38:10;10.90;86.30
24618;DHT22;12762;51.730;5.356;2023-04-24T01:40:37;10.90;86.30
24618;DHT22;12762;51.730;5.356;2023-04-24T01:43:04;10.90;86.30
24618;DHT22;12762;51.730;5.356;2023-04-24T01:45:31;10.90;86.30
24618;DHT22;12762;51.730;5.356;2023-04-24T01:47:58;10.80;86.30
24618;DHT22;12762;51.730;5.356;2023-04-24T01:50:25;10.80;87.10
24618;DHT22;12762;51.730;5.356;2023-04-24T01:52:52;10.90;86.50
24618;DHT22;12762;51.730;5.356;2023-04-24T01:55:19;10.90;86.50
24618;DHT22;12762;51.730;5.356;2023-04-24T01:57:46;10.80;86.40
24618;DHT22;12762;51.730;5.356;2023-04-24T02:00:16;10.80;87.30
24618;DHT22;12762;51.730;5.356;2023-04-24T02:02:43;10.80;86.50
24618;DHT22;12762;51.730;5.356;2023-04-24T02:05:14;10.80;86.60
24618;DHT22;12762;51.730;5.356;2023-04-24T02:07:40;10.80;86.60
24618;DHT22;12762;51.730;5.356;2023-04-24T02:10:08;10.80;86.60
24618;DHT22;12762;51.730;5.356;2023-04-24T02:12:35;10.80;86.60
24618;DHT22;12762;51.730;5.356;2023-04-24T02:15:02;10.80;86.60
24618;DHT22;12762;51.730;5.356;2023-04-24T02:17:29;10.80;86.60
24618;DHT22;12762;51.730;5.356;2023-04-24T02:19:57;10.80;86.70
24618;DHT22;12762;51.730;5.356;2023-04-24T02:22:24;10.80;86.80
24618;DHT22;12762;51.730;5.356;2023-04-24T02:24:50;10.80;86.80
24618;DHT22;12762;51.730;5.356;2023-04-24T02:27:17;10.80;86.90
24618;DHT22;12762;51.730;5.356;2023-04-24T02:29:44;10.70;86.90
24618;DHT22;12762;51.730;5.356;2023-04-24T02:32:11;10.70;86.90
24618;DHT22;12762;51.730;5.356;2023-04-24T02:34:38;10.70;87.10
24618;DHT22;12762;51.730;5.356;2023-04-24T02:37:05;10.70;87.10
24618;DHT22;12762;51.730;5.356;2023-04-24T02:39:32;10.70;87.20
24618;DHT22;12762;51.730;5.356;2023-04-24T02:41:59;10.60;87.00
24618;DHT22;12762;51.730;5.356;2023-04-24T02:44:26;10.60;87.20
24618;DHT22;12762;51.730;5.356;2023-04-24T02:46:53;10.60;87.10
24618;DHT22;12762;51.730;5.356;2023-04-24T02:49:20;10.50;87.10
24618;DHT22;12762;51.730;5.356;2023-04-24T02:51:49;10.50;87.20
24618;DHT22;12762;51.730;5.356;2023-04-24T02:54:16;10.50;87.20
24618;DHT22;12762;51.730;5.356;2023-04-24T02:56:43;10.50;87.20
24618;DHT22;12762;51.730;5.356;2023-04-24T02:59:10;10.50;87.30
24618;DHT22;12762;51.730;5.356;2023-04-24T03:01:37;10.50;87.30
24618;DHT22;12762;51.730;5.356;2023-04-24T03:04:04;10.40;87.20
24618;DHT22;12762;51.730;5.356;2023-04-24T03:06:32;10.40;87.20
24618;DHT22;12762;51.730;5.356;2023-04-24T03:08:59;10.40;87.20
24618;DHT22;12762;51.730;5.356;2023-04-24T03:11:26;10.40;87.20
24618;DHT22;12762;51.730;5.356;2023-04-24T03:13:53;10.40;87.30
24618;DHT22;12762;51.730;5.356;2023-04-24T03:16:20;10.40;87.30
24618;DHT22;12762;51.730;5.356;2023-04-24T03:18:47;10.40;88.20
24618;DHT22;12762;51.730;5.356;2023-04-24T03:21:13;10.40;87.30
24618;DHT22;12762;51.730;5.356;2023-04-24T03:23:40;10.30;87.30
24618;DHT22;12762;51.730;5.356;2023-04-24T03:26:07;10.30;87.30
24618;DHT22;12762;51.730;5.356;2023-04-24T03:28:34;10.30;87.30
24618;DHT22;12762;51.730;5.356;2023-04-24T03:31:02;10.20;87.10
24618;DHT22;12762;51.730;5.356;2023-04-24T03:33:32;10.30;87.20
24618;DHT22;12762;51.730;5.356;2023-04-24T03:35:59;10.20;87.10
24618;DHT22;12762;51.730;5.356;2023-04-24T03:38:26;10.20;87.30
24618;DHT22;12762;51.730;5.356;2023-04-24T03:40:53;10.20;87.20
24618;DHT22;12762;51.730;5.356;2023-04-24T03:43:20;10.20;87.20
24618;DHT22;12762;51.730;5.356;2023-04-24T03:45:46;10.10;87.00
24618;DHT22;12762;51.730;5.356;2023-04-24T03:48:13;10.10;87.10
24618;DHT22;12762;51.730;5.356;2023-04-24T03:50:40;10.10;87.20
24618;DHT22;12762;51.730;5.356;2023-04-24T03:53:07;10.10;87.10
24618;DHT22;12762;51.730;5.356;2023-04-24T03:55:34;10.10;87.20
24618;DHT22;12762;51.730;5.356;2023-04-24T03:58:01;10.10;87.20
24618;DHT22;12762;51.730;5.356;2023-04-24T04:00:28;10.10;87.30
24618;DHT22;12762;51.730;5.356;2023-04-24T04:02:58;10.10;87.30
24618;DHT22;12762;51.730;5.356;2023-04-24T04:05:25;10.10;87.20
24618;DHT22;12762;51.730;5.356;2023-04-24T04:07:51;10.10;87.20
24618;DHT22;12762;51.730;5.356;2023-04-24T04:10:18;10.00;87.20
24618;DHT22;12762;51.730;5.356;2023-04-24T04:12:45;10.00;87.20
24618;DHT22;12762;51.730;5.356;2023-04-24T04:15:15;10.00;87.20
24618;DHT22;12762;51.730;5.356;2023-04-24T04:17:45;10.00;87.20
24618;DHT22;12762;51.730;5.356;2023-04-24T04:20:15;10.00;87.20
24618;DHT22;12762;51.730;5.356;2023-04-24T04:22:42;10.00;87.30
24618;DHT22;12762;51.730;5.356;2023-04-24T04:25:10;10.10;87.50
24618;DHT22;12762;51.730;5.356;2023-04-24T04:27:38;10.10;87.50
24618;DHT22;12762;51.730;5.356;2023-04-24T04:30:05;10.00;87.50
24618;DHT22;12762;51.730;5.356;2023-04-24T04:32:33;10.10;87.60
24618;DHT22;12762;51.730;5.356;2023-04-24T04:35:01;10.10;87.70
24618;DHT22;12762;51.730;5.356;2023-04-24T04:37:30;10.10;88.50
24618;DHT22;12762;51.730;5.356;2023-04-24T04:39:58;10.10;87.70
24618;DHT22;12762;51.730;5.356;2023-04-24T04:42:25;10.10;87.80
24618;DHT22;12762;51.730;5.356;2023-04-24T04:44:53;10.10;87.90
24618;DHT22;12762;51.730;5.356;2023-04-24T04:47:21;10.10;88.00
24618;DHT22;12762;51.730;5.356;2023-04-24T04:49:51;10.10;88.00
24618;DHT22;12762;51.730;5.356;2023-04-24T04:52:18;10.10;88.00
24618;DHT22;12762;51.730;5.356;2023-04-24T04:54:45;10.10;88.00
24618;DHT22;12762;51.730;5.356;2023-04-24T04:57:16;10.10;88.00
24618;DHT22;12762;51.730;5.356;2023-04-24T04:59:43;10.10;88.10
24618;DHT22;12762;51.730;5.356;2023-04-24T05:02:10;10.10;88.20
24618;DHT22;12762;51.730;5.356;2023-04-24T05:04:37;10.10;88.30
24618;DHT22;12762;51.730;5.356;2023-04-24T05:07:04;10.10;88.30
24618;DHT22;12762;51.730;5.356;2023-04-24T05:09:38;10.10;88.30
24618;DHT22;12762;51.730;5.356;2023-04-24T05:12:04;10.10;89.20
24618;DHT22;12762;51.730;5.356;2023-04-24T05:14:31;10.10;88.50
24618;DHT22;12762;51.730;5.356;2023-04-24T05:16:58;10.10;88.50
24618;DHT22;12762;51.730;5.356;2023-04-24T05:19:26;10.20;88.60
24618;DHT22;12762;51.730;5.356;2023-04-24T05:21:53;10.20;88.60
24618;DHT22;12762;51.730;5.356;2023-04-24T05:24:23;10.10;88.50
24618;DHT22;12762;51.730;5.356;2023-04-24T05:26:50;10.10;88.60
24618;DHT22;12762;51.730;5.356;2023-04-24T05:29:16;10.10;88.60
24618;DHT22;12762;51.730;5.356;2023-04-24T05:31:48;10.20;88.70
24618;DHT22;12762;51.730;5.356;2023-04-24T05:34:15;10.10;88.60
24618;DHT22;12762;51.730;5.356;2023-04-24T05:36:46;10.10;88.60
24618;DHT22;12762;51.730;5.356;2023-04-24T05:39:13;10.10;88.60
24618;DHT22;12762;51.730;5.356;2023-04-24T05:41:40;10.10;88.60
24618;DHT22;12762;51.730;5.356;2023-04-24T05:44:07;10.10;88.60
24618;DHT22;12762;51.730;5.356;2023-04-24T05:46:34;10.00;88.60
24618;DHT22;12762;51.730;5.356;2023-04-24T05:49:01;10.00;88.60
24618;DHT22;12762;51.730;5.356;2023-04-24T05:51:31;10.00;88.70
24618;DHT22;12762;51.730;5.356;2023-04-24T05:53:58;10.00;88.70
24618;DHT22;12762;51.730;5.356;2023-04-24T05:56:25;10.00;88.70
24618;DHT22;12762;51.730;5.356;2023-04-24T05:58:52;10.00;88.70
24618;DHT22;12762;51.730;5.356;2023-04-24T06:01:20;10.00;88.70
24618;DHT22;12762;51.730;5.356;2023-04-24T06:03:48;10.00;88.70
24618;DHT22;12762;51.730;5.356;2023-04-24T06:06:15;10.10;88.80
24618;DHT22;12762;51.730;5.356;2023-04-24T06:08:42;10.10;88.70
24618;DHT22;12762;51.730;5.356;2023-04-24T06:11:10;10.00;88.60
24618;DHT22;12762;51.730;5.356;2023-04-24T06:13:37;10.00;88.60
24618;DHT22;12762;51.730;5.356;2023-04-24T06:16:04;10.00;88.60
24618;DHT22;12762;51.730;5.356;2023-04-24T06:18:31;10.00;88.60
24618;DHT22;12762;51.730;5.356;2023-04-24T06:20:58;10.00;88.60
24618;DHT22;12762;51.730;5.356;2023-04-24T06:23:25;10.00;88.60
24618;DHT22;12762;51.730;5.356;2023-04-24T06:25:52;9.90;89.80
24618;DHT22;12762;51.730;5.356;2023-04-24T06:28:19;9.90;89.80
24618;DHT22;12762;51.730;5.356;2023-04-24T06:30:46;9.90;89.80
24618;DHT22;12762;51.730;5.356;2023-04-24T06:33:16;9.90;90.00
24618;DHT22;12762;51.730;5.356;2023-04-24T06:35:47;9.90;90.00
24618;DHT22;12762;51.730;5.356;2023-04-24T06:38:17;9.90;90.00
24618;DHT22;12762;51.730;5.356;2023-04-24T06:40:44;9.90;90.00
24618;DHT22;12762;51.730;5.356;2023-04-24T06:43:11;9.90;90.00
24618;DHT22;12762;51.730;5.356;2023-04-24T06:45:39;9.90;90.10
24618;DHT22;12762;51.730;5.356;2023-04-24T06:48:06;9.90;90.20
24618;DHT22;12762;51.730;5.356;2023-04-24T06:50:33;9.90;90.10
24618;DHT22;12762;51.730;5.356;2023-04-24T06:53:00;9.90;90.20
24618;DHT22;12762;51.730;5.356;2023-04-24T06:55:27;9.90;90.10
24618;DHT22;12762;51.730;5.356;2023-04-24T06:57:54;9.90;90.10
24618;DHT22;12762;51.730;5.356;2023-04-24T07:00:24;9.90;90.20
24618;DHT22;12762;51.730;5.356;2023-04-24T07:02:51;9.90;90.10
24618;DHT22;12762;51.730;5.356;2023-04-24T07:05:18;9.90;90.10
24618;DHT22;12762;51.730;5.356;2023-04-24T07:07:47;9.80;90.20
24618;DHT22;12762;51.730;5.356;2023-04-24T07:10:14;9.80;90.10
24618;DHT22;12762;51.730;5.356;2023-04-24T07:12:41;9.80;90.10
24618;DHT22;12762;51.730;5.356;2023-04-24T07:15:09;9.80;90.10
24618;DHT22;12762;51.730;5.356;2023-04-24T07:17:35;9.70;90.10
24618;DHT22;12762;51.730;5.356;2023-04-24T07:20:02;9.70;90.10
24618;DHT22;12762;51.730;5.356;2023-04-24T07:22:30;9.70;90.10
24618;DHT22;12762;51.730;5.356;2023-04-24T07:24:57;9.60;90.10
24618;DHT22;12762;51.730;5.356;2023-04-24T07:27:25;9.70;90.20
24618;DHT22;12762;51.730;5.356;2023-04-24T07:29:52;9.60;90.10
24618;DHT22;12762;51.730;5.356;2023-04-24T07:32:19;9.60;90.10
24618;DHT22;12762;51.730;5.356;2023-04-24T07:34:45;9.70;90.20
24618;DHT22;12762;51.730;5.356;2023-04-24T07:37:12;9.60;90.20
24618;DHT22;12762;51.730;5.356;2023-04-24T07:39:39;9.60;90.20
24618;DHT22;12762;51.730;5.356;2023-04-24T07:42:06;9.70;90.20
24618;DHT22;12762;51.730;5.356;2023-04-24T07:44:33;9.70;90.30
24618;DHT22;12762;51.730;5.356;2023-04-24T07:47:03;9.70;90.20
24618;DHT22;12762;51.730;5.356;2023-04-24T07:49:32;9.60;90.30
24618;DHT22;12762;51.730;5.356;2023-04-24T07:52:01;9.60;90.30
24618;DHT22;12762;51.730;5.356;2023-04-24T07:54:29;9.60;90.30
24618;DHT22;12762;51.730;5.356;2023-04-24T07:56:56;9.70;90.30
24618;DHT22;12762;51.730;5.356;2023-04-24T07:59:23;9.70;90.30
24618;DHT22;12762;51.730;5.356;2023-04-24T08:01:50;9.70;90.30
24618;DHT22;12762;51.730;5.356;2023-04-24T08:04:16;9.70;90.30
24618;DHT22;12762;51.730;5.356;2023-04-24T08:06:44;9.70;90.30
24618;DHT22;12762;51.730;5.356;2023-04-24T08:09:12;9.70;90.30
24618;DHT22;12762;51.730;5.356;2023-04-24T08:11:41;9.70;90.30
24618;DHT22;12762;51.730;5.356;2023-04-24T08:14:10;9.70;90.30
24618;DHT22;12762;51.730;5.356;2023-04-24T08:16:39;9.70;90.30
24618;DHT22;12762;51.730;5.356;2023-04-24T08:19:07;9.60;90.20
24618;DHT22;12762;51.730;5.356;2023-04-24T08:21:37;9.60;90.20
24618;DHT22;12762;51.730;5.356;2023-04-24T08:24:04;9.60;90.20
24618;DHT22;12762;51.730;5.356;2023-04-24T08:26:34;9.60;90.20
24618;DHT22;12762;51.730;5.356;2023-04-24T08:29:01;9.60;90.10
24618;DHT22;12762;51.730;5.356;2023-04-24T08:31:28;9.60;90.10
24618;DHT22;12762;51.730;5.356;2023-04-24T08:33:55;9.60;90.00
24618;DHT22;12762;51.730;5.356;2023-04-24T08:36:22;9.60;90.00
24618;DHT22;12762;51.730;5.356;2023-04-24T08:38:58;9.60;90.00
24618;DHT22;12762;51.730;5.356;2023-04-24T08:41:29;9.60;90.00
24618;DHT22;12762;51.730;5.356;2023-04-24T08:44:02;9.60;90.00
24618;DHT22;12762;51.730;5.356;2023-04-24T08:46:30;9.70;90.10
24618;DHT22;12762;51.730;5.356;2023-04-24T08:48:57;9.70;90.10
24618;DHT22;12762;51.730;5.356;2023-04-24T08:51:25;9.80;90.40
24618;DHT22;12762;51.730;5.356;2023-04-24T08:53:54;9.80;90.00
24618;DHT22;12762;51.730;5.356;2023-04-24T08:56:22;9.90;90.00
24618;DHT22;12762;51.730;5.356;2023-04-24T08:58:54;10.00;88.90
24618;DHT22;12762;51.730;5.356;2023-04-24T09:01:25;10.00;88.60
24618;DHT22;12762;51.730;5.356;2023-04-24T09:03:53;10.00;88.30
24618;DHT22;12762;51.730;5.356;2023-04-24T09:06:21;10.00;88.50
24618;DHT22;12762;51.730;5.356;2023-04-24T09:08:50;10.00;88.40
24618;DHT22;12762;51.730;5.356;2023-04-24T09:11:17;10.00;88.50
24618;DHT22;12762;51.730;5.356;2023-04-24T09:13:45;10.10;88.50
24618;DHT22;12762;51.730;5.356;2023-04-24T09:16:13;10.10;88.20
24618;DHT22;12762;51.730;5.356;2023-04-24T09:18:40;10.10;88.00
24618;DHT22;12762;51.730;5.356;2023-04-24T09:21:11;10.20;87.80
24618;DHT22;12762;51.730;5.356;2023-04-24T09:23:38;10.20;87.70
24618;DHT22;12762;51.730;5.356;2023-04-24T09:26:09;10.20;87.40
24618;DHT22;12762;51.730;5.356;2023-04-24T09:28:39;10.30;87.10
24618;DHT22;12762;51.730;5.356;2023-04-24T09:31:08;10.30;86.80
24618;DHT22;12762;51.730;5.356;2023-04-24T09:33:36;10.20;86.30
24618;DHT22;12762;51.730;5.356;2023-04-24T09:36:03;10.20;86.40
24618;DHT22;12762;51.730;5.356;2023-04-24T09:38:37;10.30;86.40
24618;DHT22;12762;51.730;5.356;2023-04-24T09:41:06;10.40;86.20
24618;DHT22;12762;51.730;5.356;2023-04-24T09:43:34;10.40;85.80
24618;DHT22;12762;51.730;5.356;2023-04-24T09:46:06;10.50;85.60
24618;DHT22;12762;51.730;5.356;2023-04-24T09:48:43;10.50;85.20
24618;DHT22;12762;51.730;5.356;2023-04-24T09:51:12;10.50;85.10
24618;DHT22;12762;51.730;5.356;2023-04-24T09:53:45;10.40;84.90
24618;DHT22;12762;51.730;5.356;2023-04-24T09:56:12;10.40;84.60
24618;DHT22;12762;51.730;5.356;2023-04-24T09:58:39;10.40;84.50
24618;DHT22;12762;51.730;5.356;2023-04-24T10:01:06;10.40;85.20
24618;DHT22;12762;51.730;5.356;2023-04-24T10:03:34;10.40;84.20
24618;DHT22;12762;51.730;5.356;2023-04-24T10:06:02;10.40;84.10
24618;DHT22;12762;51.730;5.356;2023-04-24T10:08:36;10.40;84.20
24618;DHT22;12762;51.730;5.356;2023-04-24T10:11:04;10.40;84.20
24618;DHT22;12762;51.730;5.356;2023-04-24T10:13:32;10.50;83.90
24618;DHT22;12762;51.730;5.356;2023-04-24T10:16:00;10.50;83.60
24618;DHT22;12762;51.730;5.356;2023-04-24T10:18:30;10.50;83.50
24618;DHT22;12762;51.730;5.356;2023-04-24T10:20:57;10.50;84.30
24618;DHT22;12762;51.730;5.356;2023-04-24T10:23:27;10.60;83.30
24618;DHT22;12762;51.730;5.356;2023-04-24T10:25:54;10.60;83.00
24618;DHT22;12762;51.730;5.356;2023-04-24T10:28:22;10.50;82.50
24618;DHT22;12762;51.730;5.356;2023-04-24T10:30:51;10.50;82.30
24618;DHT22;12762;51.730;5.356;2023-04-24T10:33:22;10.40;82.30
24618;DHT22;12762;51.730;5.356;2023-04-24T10:35:51;10.40;82.60
24618;DHT22;12762;51.730;5.356;2023-04-24T10:38:25;10.40;82.80
24618;DHT22;12762;51.730;5.356;2023-04-24T10:41:06;10.60;82.90
24618;DHT22;12762;51.730;5.356;2023-04-24T10:43:36;10.70;82.70
24618;DHT22;12762;51.730;5.356;2023-04-24T10:46:05;10.90;82.50
24618;DHT22;12762;51.730;5.356;2023-04-24T10:48:33;11.00;82.40
24618;DHT22;12762;51.730;5.356;2023-04-24T10:51:01;11.20;82.10
24618;DHT22;12762;51.730;5.356;2023-04-24T10:53:29;11.20;81.50
24618;DHT22;12762;51.730;5.356;2023-04-24T10:56:05;11.30;81.40
24618;DHT22;12762;51.730;5.356;2023-04-24T10:58:49;11.50;81.40
24618;DHT22;12762;51.730;5.356;2023-04-24T11:01:26;11.60;81.30
24618;DHT22;12762;51.730;5.356;2023-04-24T11:03:58;11.70;80.90
24618;DHT22;12762;51.730;5.356;2023-04-24T11:06:43;11.80;80.80
24618;DHT22;12762;51.730;5.356;2023-04-24T11:09:14;11.90;80.30
24618;DHT22;12762;51.730;5.356;2023-04-24T11:11:46;12.00;79.90
24618;DHT22;12762;51.730;5.356;2023-04-24T11:14:19;12.00;79.60
24618;DHT22;12762;51.730;5.356;2023-04-24T11:16:53;12.00;79.00
24618;DHT22;12762;51.730;5.356;2023-04-24T11:19:26;11.90;78.70
24618;DHT22;12762;51.730;5.356;2023-04-24T11:22:02;11.80;78.60
24618;DHT22;12762;51.730;5.356;2023-04-24T11:27:18;11.60;78.80
24618;DHT22;12762;51.730;5.356;2023-04-24T11:29:59;11.50;78.60
24618;DHT22;12762;51.730;5.356;2023-04-24T11:32:37;11.40;78.70
24618;DHT22;12762;51.730;5.356;2023-04-24T11:35:21;11.40;78.90
24618;DHT22;12762;51.730;5.356;2023-04-24T11:37:55;11.30;78.60
24618;DHT22;12762;51.730;5.356;2023-04-24T11:40:25;11.20;78.50
24618;DHT22;12762;51.730;5.356;2023-04-24T11:42:59;11.10;78.80
24618;DHT22;12762;51.730;5.356;2023-04-24T11:45:29;11.10;79.70
24618;DHT22;12762;51.730;5.356;2023-04-24T11:47:56;11.20;79.00
24618;DHT22;12762;51.730;5.356;2023-04-24T11:50:25;11.20;79.00
24618;DHT22;12762;51.730;5.356;2023-04-24T11:52:53;11.30;79.00
24618;DHT22;12762;51.730;5.356;2023-04-24T11:57:49;11.50;79.10
24618;DHT22;12762;51.730;5.356;2023-04-24T12:00:18;11.60;79.10
24618;DHT22;12762;51.730;5.356;2023-04-24T12:02:49;11.80;79.10
24618;DHT22;12762;51.730;5.356;2023-04-24T12:05:30;11.90;78.70
24618;DHT22;12762;51.730;5.356;2023-04-24T12:08:01;11.90;78.00
24618;DHT22;12762;51.730;5.356;2023-04-24T12:10:30;11.90;78.10
24618;DHT22;12762;51.730;5.356;2023-04-24T12:12:58;11.90;77.90
24618;DHT22;12762;51.730;5.356;2023-04-24T12:15:25;11.90;77.80
24618;DHT22;12762;51.730;5.356;2023-04-24T12:17:54;11.90;78.00
24618;DHT22;12762;51.730;5.356;2023-04-24T12:20:28;11.90;78.00
24618;DHT22;12762;51.730;5.356;2023-04-24T12:22:57;11.90;77.90
24618;DHT22;12762;51.730;5.356;2023-04-24T12:25:26;11.80;78.00
24618;DHT22;12762;51.730;5.356;2023-04-24T12:27:55;11.70;78.10
24618;DHT22;12762;51.730;5.356;2023-04-24T12:30:27;11.60;78.30
24618;DHT22;12762;51.730;5.356;2023-04-24T12:33:00;11.50;78.90
24618;DHT22;12762;51.730;5.356;2023-04-24T12:35:29;11.60;79.50
24618;DHT22;12762;51.730;5.356;2023-04-24T12:38:08;11.70;79.50
24618;DHT22;12762;51.730;5.356;2023-04-24T12:40:35;11.60;79.20
24618;DHT22;12762;51.730;5.356;2023-04-24T12:43:12;11.60;79.20
24618;DHT22;12762;51.730;5.356;2023-04-24T12:45:39;11.60;79.20
24618;DHT22;12762;51.730;5.356;2023-04-24T12:48:06;11.50;79.20
24618;DHT22;12762;51.730;5.356;2023-04-24T12:50:33;11.40;79.00
24618;DHT22;12762;51.730;5.356;2023-04-24T12:53:00;11.40;79.10
24618;DHT22;12762;51.730;5.356;2023-04-24T12:55:26;11.40;79.30
24618;DHT22;12762;51.730;5.356;2023-04-24T12:57:53;11.50;79.60
24618;DHT22;12762;51.730;5.356;2023-04-24T13:00:21;11.60;80.00
24618;DHT22;12762;51.730;5.356;2023-04-24T13:02:48;11.90;80.20
24618;DHT22;12762;51.730;5.356;2023-04-24T13:05:16;12.20;79.80
24618;DHT22;12762;51.730;5.356;2023-04-24T13:07:42;12.40;79.20
24618;DHT22;12762;51.730;5.356;2023-04-24T13:10:12;12.50;78.40
24618;DHT22;12762;51.730;5.356;2023-04-24T13:12:40;12.60;78.30
24618;DHT22;12762;51.730;5.356;2023-04-24T13:15:07;12.80;78.30
24618;DHT22;12762;51.730;5.356;2023-04-24T13:17:34;13.00;78.20
24618;DHT22;12762;51.730;5.356;2023-04-24T13:20:01;13.20;77.80
24618;DHT22;12762;51.730;5.356;2023-04-24T13:22:27;13.30;77.00
24618;DHT22;12762;51.730;5.356;2023-04-24T13:24:54;13.40;76.30
24618;DHT22;12762;51.730;5.356;2023-04-24T13:27:24;13.30;75.70
24618;DHT22;12762;51.730;5.356;2023-04-24T13:29:51;13.10;74.50
24618;DHT22;12762;51.730;5.356;2023-04-24T13:32:17;13.00;74.50
24618;DHT22;12762;51.730;5.356;2023-04-24T13:34:47;12.80;74.50
24618;DHT22;12762;51.730;5.356;2023-04-24T13:37:14;12.60;74.30
24618;DHT22;12762;51.730;5.356;2023-04-24T13:39:41;12.40;74.80
24618;DHT22;12762;51.730;5.356;2023-04-24T13:42:11;12.30;75.30
24618;DHT22;12762;51.730;5.356;2023-04-24T13:44:39;12.20;74.80
24618;DHT22;12762;51.730;5.356;2023-04-24T13:47:06;12.10;75.10
24618;DHT22;12762;51.730;5.356;2023-04-24T13:49:33;12.00;75.50
24618;DHT22;12762;51.730;5.356;2023-04-24T13:52:01;11.90;75.50
24618;DHT22;12762;51.730;5.356;2023-04-24T13:54:31;11.90;75.60
24618;DHT22;12762;51.730;5.356;2023-04-24T13:56:58;11.90;75.80
24618;DHT22;12762;51.730;5.356;2023-04-24T13:59:25;11.90;76.00
24618;DHT22;12762;51.730;5.356;2023-04-24T14:01:52;12.00;76.10
24618;DHT22;12762;51.730;5.356;2023-04-24T14:04:19;12.10;76.00
24618;DHT22;12762;51.730;5.356;2023-04-24T14:06:46;12.10;75.80
24618;DHT22;12762;51.730;5.356;2023-04-24T14:09:13;12.10;75.60
24618;DHT22;12762;51.730;5.356;2023-04-24T14:11:43;12.00;75.70
24618;DHT22;12762;51.730;5.356;2023-04-24T14:14:10;12.00;75.40
24618;DHT22;12762;51.730;5.356;2023-04-24T14:16:37;11.90;75.20
24618;DHT22;12762;51.730;5.356;2023-04-24T14:19:04;11.80;75.50
24618;DHT22;12762;51.730;5.356;2023-04-24T14:21:32;11.80;75.60
24618;DHT22;12762;51.730;5.356;2023-04-24T14:23:59;11.70;75.70
24618;DHT22;12762;51.730;5.356;2023-04-24T14:26:26;11.80;76.00
24618;DHT22;12762;51.730;5.356;2023-04-24T14:28:53;11.90;76.20
24618;DHT22;12762;51.730;5.356;2023-04-24T14:31:32;11.90;76.20
24618;DHT22;12762;51.730;5.356;2023-04-24T14:33:59;12.00;76.00
24618;DHT22;12762;51.730;5.356;2023-04-24T14:36:29;12.00;75.70
24618;DHT22;12762;51.730;5.356;2023-04-24T14:38:57;11.90;75.40
24618;DHT22;12762;51.730;5.356;2023-04-24T14:41:23;11.80;75.40
24618;DHT22;12762;51.730;5.356;2023-04-24T14:43:50;11.70;75.60
24618;DHT22;12762;51.730;5.356;2023-04-24T14:46:17;11.50;75.20
24618;DHT22;12762;51.730;5.356;2023-04-24T14:48:44;11.30;75.30
24618;DHT22;12762;51.730;5.356;2023-04-24T14:51:11;11.00;75.30
24618;DHT22;12762;51.730;5.356;2023-04-24T14:53:38;10.80;75.80
24618;DHT22;12762;51.730;5.356;2023-04-24T14:56:05;10.70;76.10
24618;DHT22;12762;51.730;5.356;2023-04-24T14:58:32;10.60;76.40
24618;DHT22;12762;51.730;5.356;2023-04-24T15:00:59;10.60;76.80
24618;DHT22;12762;51.730;5.356;2023-04-24T15:03:26;10.70;77.20
24618;DHT22;12762;51.730;5.356;2023-04-24T15:05:53;10.80;77.30
24618;DHT22;12762;51.730;5.356;2023-04-24T15:08:20;11.00;77.40
24618;DHT22;12762;51.730;5.356;2023-04-24T15:10:48;11.10;77.30
24618;DHT22;12762;51.730;5.356;2023-04-24T15:13:14;11.30;77.30
24618;DHT22;12762;51.730;5.356;2023-04-24T15:15:42;11.40;77.00
24618;DHT22;12762;51.730;5.356;2023-04-24T15:18:11;11.50;77.00
24618;DHT22;12762;51.730;5.356;2023-04-24T15:20:39;11.60;77.00
24618;DHT22;12762;51.730;5.356;2023-04-24T15:23:06;11.80;77.10
24618;DHT22;12762;51.730;5.356;2023-04-24T15:25:33;12.00;77.10
24618;DHT22;12762;51.730;5.356;2023-04-24T15:28:00;12.10;76.80
24618;DHT22;12762;51.730;5.356;2023-04-24T15:30:28;12.30;76.60
24618;DHT22;12762;51.730;5.356;2023-04-24T15:32:55;12.50;75.80
24618;DHT22;12762;51.730;5.356;2023-04-24T15:35:23;12.50;75.40
24618;DHT22;12762;51.730;5.356;2023-04-24T15:37:49;12.60;74.60
24618;DHT22;12762;51.730;5.356;2023-04-24T15:40:19;12.60;73.70
24618;DHT22;12762;51.730;5.356;2023-04-24T15:42:47;12.60;72.60
24618;DHT22;12762;51.730;5.356;2023-04-24T15:45:14;12.60;73.20